sensor_id;sensor_type;location;lat;lon;timestamp;noise_LAeq;noise_LA_min;noise_LA_max;noise_LA01;noise_LA95
49568;Laerm;35474;51.032;6.998;2023-02-12T00:00:45;54.25;39.92;69.31;;
49568;Laerm;35474;51.032;6.998;2023-02-12T00:03:15;60.44;40.33;73.17;;
49568;Laerm;35474;51.032;6.998;2023-02-12T00:05:42;52.92;40.03;67.51;;
49568;Laerm;35474;51.032;6.998;2023-02-12T00:08:09;55.20;39.81;67.46;;
49568;Laerm;35474;51.032;6.998;2023-02-12T00:10:41;58.09;39.92;69.44;;
49568;Laerm;35474;51.032;6.998;2023-02-12T00:13:11;55.52;39.92;67.23;;
49568;Laerm;35474;51.032;6.998;2023-02-12T00:15:39;57.47;40.13;68.41;;
49568;Laerm;35474;51.032;6.998;2023-02-12T00:18:06;60.76;43.09;69.40;;
49568;Laerm;35474;51.032;6.998;2023-02-12T00:20:32;57.69;38.95;67.98;;
49568;Laerm;35474;51.032;6.998;2023-02-12T00:22:59;55.58;39.70;66.44;;
49568;Laerm;35474;51.032;6.998;2023-02-12T00:25:25;56.46;39.34;66.67;;
49568;Laerm;35474;51.032;6.998;2023-02-12T00:27:52;55.61;39.70;68.04;;
49568;Laerm;35474;51.032;6.998;2023-02-12T00:30:19;51.61;39.58;66.07;;
49568;Laerm;35474;51.032;6.998;2023-02-12T00:32:45;57.18;41.38;71.71;;
49568;Laerm;35474;51.032;6.998;2023-02-12T00:35:12;56.70;41.14;68.18;;
49568;Laerm;35474;51.032;6.998;2023-02-12T00:37:38;52.71;41.38;70.46;;
49568;Laerm;35474;51.032;6.998;2023-02-12T00:40:05;55.85;41.06;67.18;;
49568;Laerm;35474;51.032;6.998;2023-02-12T00:42:32;56.66;41.46;69.49;;
49568;Laerm;35474;51.032;6.998;2023-02-12T00:44:58;56.99;40.80;68.49;;
49568;Laerm;35474;51.032;6.998;2023-02-12T00:47:25;51.24;39.81;66.25;;
49568;Laerm;35474;51.032;6.998;2023-02-12T00:49:51;41.85;39.08;43.77;;
49568;Laerm;35474;51.032;6.998;2023-02-12T00:52:18;41.70;38.67;43.54;;
49568;Laerm;35474;51.032;6.998;2023-02-12T00:54:44;52.05;38.95;68.27;;
49568;Laerm;35474;51.032;6.998;2023-02-12T01:00:34;58.32;39.81;70.30;;
49568;Laerm;35474;51.032;6.998;2023-02-12T01:03:01;43.66;38.52;61.25;;
49568;Laerm;35474;51.032;6.998;2023-02-12T01:05:29;58.50;38.67;68.20;;
49568;Laerm;35474;51.032;6.998;2023-02-12T01:07:56;53.48;38.05;68.59;;
49568;Laerm;35474;51.032;6.998;2023-02-12T01:10:23;58.24;38.67;69.98;;
49568;Laerm;35474;51.032;6.998;2023-02-12T01:12:49;56.24;38.81;67.73;;
49568;Laerm;35474;51.032;6.998;2023-02-12T01:15:17;58.75;39.08;70.46;;
49568;Laerm;35474;51.032;6.998;2023-02-12T01:17:43;56.39;38.95;70.81;;
49568;Laerm;35474;51.032;6.998;2023-02-12T01:20:13;58.98;40.03;73.81;;
49568;Laerm;35474;51.032;6.998;2023-02-12T01:22:40;55.38;39.92;70.23;;
49568;Laerm;35474;51.032;6.998;2023-02-12T01:25:06;52.22;39.21;65.87;;
49568;Laerm;35474;51.032;6.998;2023-02-12T01:27:33;58.90;40.98;70.64;;
49568;Laerm;35474;51.032;6.998;2023-02-12T01:29:59;53.83;39.92;66.16;;
49568;Laerm;35474;51.032;6.998;2023-02-12T01:32:26;55.51;40.33;74.56;;
49568;Laerm;35474;51.032;6.998;2023-02-12T01:34:52;60.19;40.53;70.59;;
49568;Laerm;35474;51.032;6.998;2023-02-12T01:37:19;58.53;40.43;73.44;;
49568;Laerm;35474;51.032;6.998;2023-02-12T01:39:45;55.57;39.81;67.40;;
49568;Laerm;35474;51.032;6.998;2023-02-12T01:42:13;43.14;40.33;50.85;;
49568;Laerm;35474;51.032;6.998;2023-02-12T01:47:43;59.97;41.89;71.96;;
49568;Laerm;35474;51.032;6.998;2023-02-12T01:50:16;55.18;41.82;70.92;;
49568;Laerm;35474;51.032;6.998;2023-02-12T01:52:47;52.89;41.96;63.82;;
49568;Laerm;35474;51.032;6.998;2023-02-12T01:55:18;57.21;43.29;70.93;;
49568;Laerm;35474;51.032;6.998;2023-02-12T01:57:46;56.21;42.93;69.48;;
49568;Laerm;35474;51.032;6.998;2023-02-12T02:00:16;56.79;43.19;68.97;;
49568;Laerm;35474;51.032;6.998;2023-02-12T02:02:55;50.83;43.19;65.21;;
49568;Laerm;35474;51.032;6.998;2023-02-12T02:05:32;58.84;43.39;70.69;;
49568;Laerm;35474;51.032;6.998;2023-02-12T02:08:00;56.50;43.09;68.72;;
49568;Laerm;35474;51.032;6.998;2023-02-12T02:10:28;47.44;43.24;62.42;;
49568;Laerm;35474;51.032;6.998;2023-02-12T02:12:55;53.75;42.47;70.58;;
49568;Laerm;35474;51.032;6.998;2023-02-12T02:15:45;56.43;43.24;67.73;;
49568;Laerm;35474;51.032;6.998;2023-02-12T02:21:07;51.47;42.59;70.48;;
49568;Laerm;35474;51.032;6.998;2023-02-12T02:24:09;56.01;42.76;71.23;;
49568;Laerm;35474;51.032;6.998;2023-02-12T02:26:52;56.55;43.49;70.23;;
49568;Laerm;35474;51.032;6.998;2023-02-12T02:34:39;51.24;42.93;64.18;;
49568;Laerm;35474;51.032;6.998;2023-02-12T02:37:23;56.46;42.93;69.48;;
49568;Laerm;35474;51.032;6.998;2023-02-12T02:40:06;54.89;42.65;67.55;;
49568;Laerm;35474;51.032;6.998;2023-02-12T02:45:42;52.51;42.41;68.02;;
49568;Laerm;35474;51.032;6.998;2023-02-12T02:48:14;44.07;41.68;48.48;;
49568;Laerm;35474;51.032;6.998;2023-02-12T02:50:46;51.79;41.89;69.98;;
49568;Laerm;35474;51.032;6.998;2023-02-12T02:53:24;56.88;42.59;72.00;;
49568;Laerm;35474;51.032;6.998;2023-02-12T02:55:56;44.56;42.88;49.98;;
49568;Laerm;35474;51.032;6.998;2023-02-12T02:58:31;55.61;43.09;67.52;;
49568;Laerm;35474;51.032;6.998;2023-02-12T03:01:17;57.33;43.34;70.65;;
49568;Laerm;35474;51.032;6.998;2023-02-12T03:03:51;52.12;43.14;66.58;;
49568;Laerm;35474;51.032;6.998;2023-02-12T03:06:40;54.62;43.49;71.76;;
49568;Laerm;35474;51.032;6.998;2023-02-12T03:09:39;51.19;43.72;64.52;;
49568;Laerm;35474;51.032;6.998;2023-02-12T03:12:18;60.24;44.19;69.28;;
49568;Laerm;35474;51.032;6.998;2023-02-12T03:14:52;56.33;42.88;70.08;;
49568;Laerm;35474;51.032;6.998;2023-02-12T03:17:24;46.58;42.47;56.33;;
49568;Laerm;35474;51.032;6.998;2023-02-12T03:19:58;51.06;42.76;65.54;;
49568;Laerm;35474;51.032;6.998;2023-02-12T03:22:31;44.32;42.22;47.72;;
49568;Laerm;35474;51.032;6.998;2023-02-12T03:25:03;52.18;42.22;65.91;;
49568;Laerm;35474;51.032;6.998;2023-02-12T03:27:43;51.23;42.98;66.60;;
49568;Laerm;35474;51.032;6.998;2023-02-12T03:30:10;58.09;43.63;70.24;;
49568;Laerm;35474;51.032;6.998;2023-02-12T03:32:41;44.97;43.34;54.07;;
49568;Laerm;35474;51.032;6.998;2023-02-12T03:35:17;56.27;43.14;68.61;;
49568;Laerm;35474;51.032;6.998;2023-02-12T03:37:57;53.69;42.76;68.03;;
49568;Laerm;35474;51.032;6.998;2023-02-12T03:40:29;54.95;42.88;68.17;;
49568;Laerm;35474;51.032;6.998;2023-02-12T03:43:03;55.76;42.82;68.85;;
49568;Laerm;35474;51.032;6.998;2023-02-12T03:45:49;57.12;43.58;74.03;;
49568;Laerm;35474;51.032;6.998;2023-02-12T03:48:25;51.14;43.39;62.76;;
49568;Laerm;35474;51.032;6.998;2023-02-12T03:51:04;45.03;42.98;49.57;;
49568;Laerm;35474;51.032;6.998;2023-02-12T03:53:35;56.58;42.82;67.93;;
49568;Laerm;35474;51.032;6.998;2023-02-12T03:56:09;44.94;42.88;53.73;;
49568;Laerm;35474;51.032;6.998;2023-02-12T03:58:40;55.34;43.29;68.08;;
49568;Laerm;35474;51.032;6.998;2023-02-12T04:01:08;52.53;43.19;66.09;;
49568;Laerm;35474;51.032;6.998;2023-02-12T04:03:37;56.02;43.49;69.72;;
49568;Laerm;35474;51.032;6.998;2023-02-12T04:06:04;54.85;43.60;70.95;;
49568;Laerm;35474;51.032;6.998;2023-02-12T04:08:31;56.72;43.68;69.99;;
49568;Laerm;35474;51.032;6.998;2023-02-12T04:11:09;51.35;43.24;65.79;;
49568;Laerm;35474;51.032;6.998;2023-02-12T04:13:48;56.87;43.90;69.36;;
49568;Laerm;35474;51.032;6.998;2023-02-12T04:19:53;51.60;42.76;65.44;;
49568;Laerm;35474;51.032;6.998;2023-02-12T04:22:38;53.60;43.44;67.08;;
49568;Laerm;35474;51.032;6.998;2023-02-12T04:25:16;57.70;43.76;73.00;;
49568;Laerm;35474;51.032;6.998;2023-02-12T04:30:34;44.66;42.82;50.20;;
49568;Laerm;35474;51.032;6.998;2023-02-12T04:33:04;58.27;43.39;69.44;;
49568;Laerm;35474;51.032;6.998;2023-02-12T04:35:35;57.74;43.63;70.91;;
49568;Laerm;35474;51.032;6.998;2023-02-12T04:38:10;59.28;43.76;71.30;;
49568;Laerm;35474;51.032;6.998;2023-02-12T04:40:40;58.74;43.72;69.84;;
49568;Laerm;35474;51.032;6.998;2023-02-12T04:43:07;61.74;43.58;71.67;;
49568;Laerm;35474;51.032;6.998;2023-02-12T04:45:35;60.10;43.90;71.19;;
49568;Laerm;35474;51.032;6.998;2023-02-12T04:48:03;58.67;44.27;70.31;;
49568;Laerm;35474;51.032;6.998;2023-02-12T04:50:41;53.21;44.07;69.69;;
49568;Laerm;35474;51.032;6.998;2023-02-12T04:53:09;61.11;44.47;71.69;;
49568;Laerm;35474;51.032;6.998;2023-02-12T04:55:36;58.82;44.76;72.77;;
49568;Laerm;35474;51.032;6.998;2023-02-12T04:58:03;59.72;44.31;72.47;;
49568;Laerm;35474;51.032;6.998;2023-02-12T05:00:29;57.00;43.63;68.87;;
49568;Laerm;35474;51.032;6.998;2023-02-12T05:02:56;59.85;42.98;69.86;;
49568;Laerm;35474;51.032;6.998;2023-02-12T05:05:23;56.58;43.58;71.73;;
49568;Laerm;35474;51.032;6.998;2023-02-12T05:07:50;56.26;43.64;71.55;;
49568;Laerm;35474;51.032;6.998;2023-02-12T05:10:16;53.49;43.86;67.04;;
49568;Laerm;35474;51.032;6.998;2023-02-12T05:12:43;56.57;44.11;67.04;;
49568;Laerm;35474;51.032;6.998;2023-02-12T05:15:10;58.17;44.69;70.44;;
49568;Laerm;35474;51.032;6.998;2023-02-12T05:17:36;54.05;45.11;65.81;;
49568;Laerm;35474;51.032;6.998;2023-02-12T05:20:04;56.98;44.87;68.44;;
49568;Laerm;35474;51.032;6.998;2023-02-12T05:22:31;52.56;44.11;65.43;;
49568;Laerm;35474;51.032;6.998;2023-02-12T05:24:57;53.00;43.81;67.66;;
49568;Laerm;35474;51.032;6.998;2023-02-12T05:27:23;56.18;43.81;67.12;;
49568;Laerm;35474;51.032;6.998;2023-02-12T05:29:50;51.63;43.04;64.11;;
49568;Laerm;35474;51.032;6.998;2023-02-12T05:32:16;57.52;42.65;68.20;;
49568;Laerm;35474;51.032;6.998;2023-02-12T05:34:43;59.72;43.19;69.83;;
49568;Laerm;35474;51.032;6.998;2023-02-12T05:37:10;54.84;41.46;72.82;;
49568;Laerm;35474;51.032;6.998;2023-02-12T05:39:36;51.98;41.06;62.58;;
49568;Laerm;35474;51.032;6.998;2023-02-12T05:42:03;56.45;41.53;66.97;;
49568;Laerm;35474;51.032;6.998;2023-02-12T05:44:29;56.94;41.22;71.85;;
49568;Laerm;35474;51.032;6.998;2023-02-12T05:46:55;57.35;40.89;70.78;;
49568;Laerm;35474;51.032;6.998;2023-02-12T05:49:22;54.10;40.80;69.57;;
49568;Laerm;35474;51.032;6.998;2023-02-12T05:51:48;58.57;41.53;69.43;;
49568;Laerm;35474;51.032;6.998;2023-02-12T05:54:15;57.59;41.22;69.09;;
49568;Laerm;35474;51.032;6.998;2023-02-12T05:56:44;56.80;43.89;68.33;;
49568;Laerm;35474;51.032;6.998;2023-02-12T05:59:17;57.92;41.89;69.79;;
49568;Laerm;35474;51.032;6.998;2023-02-12T06:01:45;54.56;41.22;66.37;;
49568;Laerm;35474;51.032;6.998;2023-02-12T06:04:24;56.53;43.24;69.87;;
49568;Laerm;35474;51.032;6.998;2023-02-12T06:06:51;55.42;41.75;67.49;;
49568;Laerm;35474;51.032;6.998;2023-02-12T06:09:18;59.29;42.58;70.63;;
49568;Laerm;35474;51.032;6.998;2023-02-12T06:11:45;58.41;42.29;67.82;;
49568;Laerm;35474;51.032;6.998;2023-02-12T06:14:14;50.53;41.89;64.84;;
49568;Laerm;35474;51.032;6.998;2023-02-12T06:16:44;58.01;41.82;70.97;;
49568;Laerm;35474;51.032;6.998;2023-02-12T06:19:11;56.59;42.59;70.34;;
49568;Laerm;35474;51.032;6.998;2023-02-12T06:21:38;57.63;41.82;71.25;;
49568;Laerm;35474;51.032;6.998;2023-02-12T06:24:04;54.97;41.75;66.64;;
49568;Laerm;35474;51.032;6.998;2023-02-12T06:26:31;57.00;40.80;71.67;;
49568;Laerm;35474;51.032;6.998;2023-02-12T06:28:57;50.28;41.14;66.13;;
49568;Laerm;35474;51.032;6.998;2023-02-12T06:31:26;57.89;41.38;69.24;;
49568;Laerm;35474;51.032;6.998;2023-02-12T06:33:55;48.03;41.14;63.15;;
49568;Laerm;35474;51.032;6.998;2023-02-12T06:36:22;47.61;41.03;62.66;;
49568;Laerm;35474;51.032;6.998;2023-02-12T06:38:49;59.28;41.82;68.94;;
49568;Laerm;35474;51.032;6.998;2023-02-12T06:41:16;51.85;41.46;67.89;;
49568;Laerm;35474;51.032;6.998;2023-02-12T06:43:43;55.47;41.68;67.61;;
49568;Laerm;35474;51.032;6.998;2023-02-12T06:46:10;57.18;41.75;69.77;;
49568;Laerm;35474;51.032;6.998;2023-02-12T06:48:37;53.68;40.89;64.03;;
49568;Laerm;35474;51.032;6.998;2023-02-12T06:51:08;56.22;41.38;68.64;;
49568;Laerm;35474;51.032;6.998;2023-02-12T06:53:36;56.22;42.03;67.63;;
49568;Laerm;35474;51.032;6.998;2023-02-12T06:56:04;58.86;40.89;71.15;;
49568;Laerm;35474;51.032;6.998;2023-02-12T06:58:31;53.61;40.80;67.38;;
49568;Laerm;35474;51.032;6.998;2023-02-12T07:03:40;57.91;39.70;71.43;;
49568;Laerm;35474;51.032;6.998;2023-02-12T07:06:08;55.31;39.70;70.25;;
49568;Laerm;35474;51.032;6.998;2023-02-12T07:08:35;60.03;41.14;71.39;;
49568;Laerm;35474;51.032;6.998;2023-02-12T07:11:02;54.36;40.33;67.23;;
49568;Laerm;35474;51.032;6.998;2023-02-12T07:13:30;59.07;41.46;68.93;;
49568;Laerm;35474;51.032;6.998;2023-02-12T07:16:07;59.18;41.30;73.84;;
49568;Laerm;35474;51.032;6.998;2023-02-12T07:18:35;56.93;42.09;70.15;;
49568;Laerm;35474;51.032;6.998;2023-02-12T07:21:04;52.40;42.16;66.70;;
49568;Laerm;35474;51.032;6.998;2023-02-12T07:23:39;52.10;41.82;65.65;;
49568;Laerm;35474;51.032;6.998;2023-02-12T07:26:13;55.93;42.47;67.20;;
49568;Laerm;35474;51.032;6.998;2023-02-12T07:28:41;54.42;43.39;66.82;;
49568;Laerm;35474;51.032;6.998;2023-02-12T07:32:34;61.18;44.51;71.43;;
49568;Laerm;35474;51.032;6.998;2023-02-12T07:35:01;54.80;43.44;66.49;;
49568;Laerm;35474;51.032;6.998;2023-02-12T07:37:27;59.60;43.58;69.26;;
49568;Laerm;35474;51.032;6.998;2023-02-12T07:39:54;61.77;45.30;72.32;;
49568;Laerm;35474;51.032;6.998;2023-02-12T07:42:20;58.87;44.31;68.81;;
49568;Laerm;35474;51.032;6.998;2023-02-12T07:44:47;58.69;44.47;72.88;;
49568;Laerm;35474;51.032;6.998;2023-02-12T07:47:15;61.97;45.77;75.31;;
49568;Laerm;35474;51.032;6.998;2023-02-12T07:49:41;62.20;51.36;73.22;;
49568;Laerm;35474;51.032;6.998;2023-02-12T07:52:08;61.44;44.73;69.79;;
49568;Laerm;35474;51.032;6.998;2023-02-12T07:54:38;59.57;43.72;70.45;;
49568;Laerm;35474;51.032;6.998;2023-02-12T07:57:05;57.08;43.68;66.78;;
49568;Laerm;35474;51.032;6.998;2023-02-12T07:59:31;61.80;49.73;71.44;;
49568;Laerm;35474;51.032;6.998;2023-02-12T08:01:58;61.72;46.15;71.24;;
49568;Laerm;35474;51.032;6.998;2023-02-12T08:04:26;59.09;43.68;67.75;;
49568;Laerm;35474;51.032;6.998;2023-02-12T08:06:54;57.44;43.54;71.36;;
49568;Laerm;35474;51.032;6.998;2023-02-12T08:09:23;61.68;45.94;77.64;;
49568;Laerm;35474;51.032;6.998;2023-02-12T08:11:50;59.54;44.76;76.60;;
49568;Laerm;35474;51.032;6.998;2023-02-12T08:14:19;59.23;43.64;69.92;;
49568;Laerm;35474;51.032;6.998;2023-02-12T08:16:47;60.15;43.94;69.95;;
49568;Laerm;35474;51.032;6.998;2023-02-12T08:19:15;61.87;45.48;71.88;;
49568;Laerm;35474;51.032;6.998;2023-02-12T08:21:49;62.18;44.94;72.06;;
49568;Laerm;35474;51.032;6.998;2023-02-12T08:24:16;60.00;43.90;70.11;;
49568;Laerm;35474;51.032;6.998;2023-02-12T08:26:43;62.72;44.65;75.07;;
49568;Laerm;35474;51.032;6.998;2023-02-12T08:29:13;59.73;43.24;69.59;;
49568;Laerm;35474;51.032;6.998;2023-02-12T08:31:45;63.70;43.24;73.84;;
49568;Laerm;35474;51.032;6.998;2023-02-12T08:34:20;58.69;43.29;72.44;;
49568;Laerm;35474;51.032;6.998;2023-02-12T08:36:49;61.28;43.44;71.04;;
49568;Laerm;35474;51.032;6.998;2023-02-12T08:39:16;62.06;44.07;72.99;;
49568;Laerm;35474;51.032;6.998;2023-02-12T08:41:43;59.90;44.03;71.37;;
49568;Laerm;35474;51.032;6.998;2023-02-12T08:44:10;63.32;45.20;71.60;;
49568;Laerm;35474;51.032;6.998;2023-02-12T08:46:39;61.89;46.84;69.93;;
49568;Laerm;35474;51.032;6.998;2023-02-12T08:49:12;64.43;46.02;76.21;;
49568;Laerm;35474;51.032;6.998;2023-02-12T08:51:42;62.77;43.49;76.05;;
49568;Laerm;35474;51.032;6.998;2023-02-12T08:54:11;60.21;42.98;68.64;;
49568;Laerm;35474;51.032;6.998;2023-02-12T08:56:38;63.55;44.31;71.67;;
49568;Laerm;35474;51.032;6.998;2023-02-12T08:59:06;60.57;43.99;71.26;;
49568;Laerm;35474;51.032;6.998;2023-02-12T09:01:35;62.29;43.86;70.41;;
49568;Laerm;35474;51.032;6.998;2023-02-12T09:04:18;60.35;42.47;76.33;;
49568;Laerm;35474;51.032;6.998;2023-02-12T09:06:47;62.32;43.29;73.91;;
49568;Laerm;35474;51.032;6.998;2023-02-12T09:09:14;62.49;44.90;71.15;;
49568;Laerm;35474;51.032;6.998;2023-02-12T09:11:41;63.54;41.06;75.47;;
49568;Laerm;35474;51.032;6.998;2023-02-12T09:14:12;63.21;42.35;75.98;;
49568;Laerm;35474;51.032;6.998;2023-02-12T09:16:39;64.13;46.55;70.67;;
49568;Laerm;35474;51.032;6.998;2023-02-12T09:19:07;60.31;42.35;70.00;;
49568;Laerm;35474;51.032;6.998;2023-02-12T09:21:34;61.32;41.61;70.48;;
49568;Laerm;35474;51.032;6.998;2023-02-12T09:24:01;63.34;41.53;72.42;;
49568;Laerm;35474;51.032;6.998;2023-02-12T09:26:29;62.70;47.59;69.77;;
49568;Laerm;35474;51.032;6.998;2023-02-12T09:28:56;56.31;40.71;66.95;;
49568;Laerm;35474;51.032;6.998;2023-02-12T09:31:25;59.10;41.75;67.24;;
49568;Laerm;35474;51.032;6.998;2023-02-12T09:33:54;64.49;41.96;78.92;;
49568;Laerm;35474;51.032;6.998;2023-02-12T09:36:22;63.89;43.58;73.46;;
49568;Laerm;35474;51.032;6.998;2023-02-12T09:38:49;60.08;42.13;71.09;;
49568;Laerm;35474;51.032;6.998;2023-02-12T09:46:57;63.84;42.16;72.05;;
49568;Laerm;35474;51.032;6.998;2023-02-12T09:49:51;62.45;41.75;70.14;;
49568;Laerm;35474;51.032;6.998;2023-02-12T09:52:26;62.58;43.09;70.97;;
49568;Laerm;35474;51.032;6.998;2023-02-12T09:54:54;61.97;41.30;71.59;;
49568;Laerm;35474;51.032;6.998;2023-02-12T09:57:35;62.01;41.30;70.53;;
49568;Laerm;35474;51.032;6.998;2023-02-12T10:00:08;60.74;42.76;71.18;;
49568;Laerm;35474;51.032;6.998;2023-02-12T10:02:38;63.86;52.80;72.50;;
49568;Laerm;35474;51.032;6.998;2023-02-12T10:05:14;64.15;51.03;70.85;;
49568;Laerm;35474;51.032;6.998;2023-02-12T10:13:21;63.37;43.09;71.96;;
49568;Laerm;35474;51.032;6.998;2023-02-12T10:16:12;62.54;42.35;72.62;;
49568;Laerm;35474;51.032;6.998;2023-02-12T10:19:20;61.62;40.89;71.38;;
49568;Laerm;35474;51.032;6.998;2023-02-12T10:26:49;63.48;41.46;72.23;;
49568;Laerm;35474;51.032;6.998;2023-02-12T10:29:22;64.83;52.13;77.43;;
49568;Laerm;35474;51.032;6.998;2023-02-12T10:31:52;65.47;42.82;86.95;;
49568;Laerm;35474;51.032;6.998;2023-02-12T10:34:24;65.16;51.91;74.64;;
49568;Laerm;35474;51.032;6.998;2023-02-12T10:37:01;62.37;43.39;70.38;;
49568;Laerm;35474;51.032;6.998;2023-02-12T10:39:40;62.18;42.09;70.47;;
49568;Laerm;35474;51.032;6.998;2023-02-12T10:42:15;63.00;40.98;73.78;;
49568;Laerm;35474;51.032;6.998;2023-02-12T10:44:43;63.81;43.04;71.25;;
49568;Laerm;35474;51.032;6.998;2023-02-12T10:47:18;61.75;42.88;72.90;;
49568;Laerm;35474;51.032;6.998;2023-02-12T10:49:56;62.89;42.41;72.31;;
49568;Laerm;35474;51.032;6.998;2023-02-12T10:55:31;62.97;44.94;71.46;;
49568;Laerm;35474;51.032;6.998;2023-02-12T10:58:01;63.07;45.94;70.23;;
49568;Laerm;35474;51.032;6.998;2023-02-12T11:00:36;62.71;42.09;71.54;;
49568;Laerm;35474;51.032;6.998;2023-02-12T11:05:40;77.07;42.29;98.26;;
49568;Laerm;35474;51.032;6.998;2023-02-12T11:08:27;63.55;47.46;74.35;;
49568;Laerm;35474;51.032;6.998;2023-02-12T11:11:07;63.55;43.99;72.24;;
49568;Laerm;35474;51.032;6.998;2023-02-12T11:13:35;62.25;44.73;71.87;;
49568;Laerm;35474;51.032;6.998;2023-02-12T11:16:02;63.07;42.71;70.79;;
49568;Laerm;35474;51.032;6.998;2023-02-12T11:18:31;65.30;47.68;71.71;;
49568;Laerm;35474;51.032;6.998;2023-02-12T11:21:04;63.27;46.92;70.90;;
49568;Laerm;35474;51.032;6.998;2023-02-12T11:23:35;62.99;51.63;73.14;;
49568;Laerm;35474;51.032;6.998;2023-02-12T11:26:04;63.94;46.20;72.77;;
49568;Laerm;35474;51.032;6.998;2023-02-12T11:28:33;63.55;49.55;74.08;;
49568;Laerm;35474;51.032;6.998;2023-02-12T11:33:40;63.51;45.20;71.14;;
49568;Laerm;35474;51.032;6.998;2023-02-12T11:36:26;64.49;51.03;74.75;;
49568;Laerm;35474;51.032;6.998;2023-02-12T11:38:56;61.93;43.86;69.42;;
49568;Laerm;35474;51.032;6.998;2023-02-12T11:44:01;64.51;48.94;70.74;;
49568;Laerm;35474;51.032;6.998;2023-02-12T11:46:27;63.24;40.89;71.72;;
49568;Laerm;35474;51.032;6.998;2023-02-12T11:48:55;63.41;43.14;71.61;;
49568;Laerm;35474;51.032;6.998;2023-02-12T11:51:25;64.59;47.83;73.70;;
49568;Laerm;35474;51.032;6.998;2023-02-12T11:53:57;64.15;45.77;73.74;;
49568;Laerm;35474;51.032;6.998;2023-02-12T11:56:39;63.55;42.74;80.11;;
49568;Laerm;35474;51.032;6.998;2023-02-12T12:01:54;63.18;43.58;73.30;;
49568;Laerm;35474;51.032;6.998;2023-02-12T12:04:26;62.25;41.75;70.12;;
49568;Laerm;35474;51.032;6.998;2023-02-12T12:07:00;62.97;44.80;70.50;;
49568;Laerm;35474;51.032;6.998;2023-02-12T12:09:43;64.82;51.16;73.17;;
49568;Laerm;35474;51.032;6.998;2023-02-12T12:15:20;64.27;44.76;75.22;;
49568;Laerm;35474;51.032;6.998;2023-02-12T12:21:40;62.81;43.54;70.05;;
49568;Laerm;35474;51.032;6.998;2023-02-12T12:24:15;63.47;44.15;71.46;;
49568;Laerm;35474;51.032;6.998;2023-02-12T12:26:46;63.81;49.07;72.64;;
49568;Laerm;35474;51.032;6.998;2023-02-12T12:32:08;62.86;45.20;72.25;;
49568;Laerm;35474;51.032;6.998;2023-02-12T12:34:37;63.11;44.35;73.25;;
49568;Laerm;35474;51.032;6.998;2023-02-12T12:37:18;62.38;45.75;71.74;;
49568;Laerm;35474;51.032;6.998;2023-02-12T12:40:22;64.28;41.96;76.12;;
49568;Laerm;35474;51.032;6.998;2023-02-12T12:43:12;65.00;43.09;72.34;;
49568;Laerm;35474;51.032;6.998;2023-02-12T12:48:54;63.74;49.04;72.67;;
49568;Laerm;35474;51.032;6.998;2023-02-12T13:00:02;63.61;43.24;73.30;;
49568;Laerm;35474;51.032;6.998;2023-02-12T13:10:53;65.00;51.19;76.63;;
49568;Laerm;35474;51.032;6.998;2023-02-12T13:13:34;62.67;41.89;72.31;;
49568;Laerm;35474;51.032;6.998;2023-02-12T13:22:07;63.39;46.23;70.70;;
49568;Laerm;35474;51.032;6.998;2023-02-12T13:24:42;63.09;41.14;78.01;;
49568;Laerm;35474;51.032;6.998;2023-02-12T13:27:18;63.32;44.65;73.13;;
49568;Laerm;35474;51.032;6.998;2023-02-12T13:29:50;64.62;44.80;73.98;;
49568;Laerm;35474;51.032;6.998;2023-02-12T13:32:25;63.54;44.07;70.68;;
49568;Laerm;35474;51.032;6.998;2023-02-12T13:34:55;64.23;48.12;71.66;;
49568;Laerm;35474;51.032;6.998;2023-02-12T13:37:41;63.75;44.54;71.98;;
49568;Laerm;35474;51.032;6.998;2023-02-12T13:40:24;64.68;53.40;73.60;;
49568;Laerm;35474;51.032;6.998;2023-02-12T13:45:57;65.32;47.02;72.62;;
49568;Laerm;35474;51.032;6.998;2023-02-12T13:54:15;64.30;46.57;71.88;;
49568;Laerm;35474;51.032;6.998;2023-02-12T14:02:04;64.94;45.11;72.79;;
49568;Laerm;35474;51.032;6.998;2023-02-12T14:04:33;63.21;42.41;72.46;;
49568;Laerm;35474;51.032;6.998;2023-02-12T14:07:01;63.34;42.47;71.05;;
49568;Laerm;35474;51.032;6.998;2023-02-12T14:10:17;64.20;52.55;69.92;;
49568;Laerm;35474;51.032;6.998;2023-02-12T14:15:31;63.55;45.27;73.00;;
49568;Laerm;35474;51.032;6.998;2023-02-12T14:20:32;63.37;42.93;72.68;;
49568;Laerm;35474;51.032;6.998;2023-02-12T14:23:27;62.79;47.10;70.76;;
49568;Laerm;35474;51.032;6.998;2023-02-12T14:26:10;62.16;45.36;71.43;;
49568;Laerm;35474;51.032;6.998;2023-02-12T14:28:46;63.79;43.24;71.75;;
49568;Laerm;35474;51.032;6.998;2023-02-12T14:33:47;63.25;41.53;71.54;;
49568;Laerm;35474;51.032;6.998;2023-02-12T14:39:02;62.59;43.29;70.36;;
49568;Laerm;35474;51.032;6.998;2023-02-12T14:41:37;63.74;45.66;70.12;;
49568;Laerm;35474;51.032;6.998;2023-02-12T14:46:44;64.29;46.38;70.30;;
49568;Laerm;35474;51.032;6.998;2023-02-12T14:49:51;62.97;42.76;76.41;;
49568;Laerm;35474;51.032;6.998;2023-02-12T14:52:26;63.61;43.90;71.49;;
49568;Laerm;35474;51.032;6.998;2023-02-12T14:55:00;62.45;44.07;73.09;;
49568;Laerm;35474;51.032;6.998;2023-02-12T14:57:30;63.91;43.29;73.90;;
49568;Laerm;35474;51.032;6.998;2023-02-12T15:02:34;64.88;49.49;73.53;;
49568;Laerm;35474;51.032;6.998;2023-02-12T15:05:11;62.95;50.28;70.11;;
49568;Laerm;35474;51.032;6.998;2023-02-12T15:07:43;62.84;43.86;73.15;;
49568;Laerm;35474;51.032;6.998;2023-02-12T15:10:17;63.08;46.30;72.64;;
49568;Laerm;35474;51.032;6.998;2023-02-12T15:12:47;64.92;46.13;74.34;;
49568;Laerm;35474;51.032;6.998;2023-02-12T15:15:36;63.07;45.66;70.54;;
49568;Laerm;35474;51.032;6.998;2023-02-12T15:21:18;63.12;45.75;73.09;;
49568;Laerm;35474;51.032;6.998;2023-02-12T15:23:55;63.51;44.11;71.68;;
49568;Laerm;35474;51.032;6.998;2023-02-12T15:26:26;62.87;42.82;71.63;;
49568;Laerm;35474;51.032;6.998;2023-02-12T15:28:54;62.17;48.61;73.92;;
49568;Laerm;35474;51.032;6.998;2023-02-12T15:31:27;62.26;42.09;69.95;;
49568;Laerm;35474;51.032;6.998;2023-02-12T15:33:57;65.14;49.41;73.18;;
49568;Laerm;35474;51.032;6.998;2023-02-12T15:36:26;62.32;44.15;70.32;;
49568;Laerm;35474;51.032;6.998;2023-02-12T15:39:03;64.67;49.98;74.26;;
49568;Laerm;35474;51.032;6.998;2023-02-12T15:41:39;63.53;45.83;74.52;;
49568;Laerm;35474;51.032;6.998;2023-02-12T15:44:28;63.18;43.99;71.01;;
49568;Laerm;35474;51.032;6.998;2023-02-12T15:47:21;64.18;46.48;72.38;;
49568;Laerm;35474;51.032;6.998;2023-02-12T15:49:58;65.06;47.40;73.41;;
49568;Laerm;35474;51.032;6.998;2023-02-12T15:52:33;64.44;44.62;72.92;;
49568;Laerm;35474;51.032;6.998;2023-02-12T15:55:05;63.88;51.70;75.91;;
49568;Laerm;35474;51.032;6.998;2023-02-12T15:57:32;63.99;50.48;73.30;;
49568;Laerm;35474;51.032;6.998;2023-02-12T16:00:06;64.84;49.32;72.42;;
49568;Laerm;35474;51.032;6.998;2023-02-12T16:02:34;65.69;46.57;74.75;;
49568;Laerm;35474;51.032;6.998;2023-02-12T16:07:25;63.52;45.51;71.73;;
49568;Laerm;35474;51.032;6.998;2023-02-12T16:09:55;63.83;50.17;71.07;;
49568;Laerm;35474;51.032;6.998;2023-02-12T16:12:24;63.74;48.02;72.50;;
49568;Laerm;35474;51.032;6.998;2023-02-12T16:14:56;64.69;50.24;71.81;;
49568;Laerm;35474;51.032;6.998;2023-02-12T16:17:31;64.48;49.52;71.63;;